createdAt,value
2018-04-25T00:00:13.604Z,5.97
2018-04-25T00:02:42.735Z,6.03
2018-04-25T00:05:10.972Z,7.23
2018-04-25T00:07:40.000Z,5.60
2018-04-25T00:10:08.241Z,5.17
2018-04-25T00:12:37.855Z,4.70
2018-04-25T00:15:06.907Z,6.63
2018-04-25T00:17:35.158Z,5.47
2018-04-25T00:20:03.417Z,6.00
2018-04-25T00:22:32.446Z,5.53
2018-04-25T00:25:00.684Z,7.53
2018-04-25T00:27:29.724Z,4.77
2018-04-25T00:29:57.954Z,5.63
2018-04-25T00:32:26.297Z,12.40
2018-04-25T00:34:54.581Z,6.07
2018-04-25T00:37:22.834Z,8.60
2018-04-25T00:39:51.088Z,7.53
2018-04-25T00:42:20.133Z,7.20
2018-04-25T00:44:48.372Z,6.27
2018-04-25T00:47:17.404Z,6.63
2018-04-25T00:49:45.682Z,7.40
2018-04-25T00:52:13.969Z,12.40
2018-04-25T00:54:42.244Z,7.20
2018-04-25T00:57:10.497Z,7.00
2018-04-25T00:59:38.836Z,6.33
2018-04-25T01:02:07.055Z,8.97
2018-04-25T01:04:35.313Z,6.40
2018-04-25T01:07:04.340Z,8.90
2018-04-25T01:09:32.601Z,6.87
2018-04-25T01:12:01.646Z,9.60
2018-04-25T01:14:30.634Z,6.33
2018-04-25T01:16:58.898Z,7.50
2018-04-25T01:19:27.156Z,11.70
2018-04-25T01:21:55.411Z,7.40
2018-04-25T01:24:24.446Z,8.10
2018-04-25T01:26:53.634Z,12.13
2018-04-25T01:29:23.487Z,7.27
2018-04-25T01:31:53.706Z,11.27
2018-04-25T01:37:41.175Z,8.90
2018-04-25T01:40:09.451Z,6.30
2018-04-25T01:45:37.174Z,6.60
2018-04-25T01:50:57.973Z,7.13
2018-04-25T01:53:38.108Z,7.53
2018-04-25T01:56:24.182Z,7.87
2018-04-25T01:59:10.588Z,8.07
2018-04-25T02:01:44.528Z,11.10
2018-04-25T02:04:12.598Z,7.63
2018-04-25T02:06:40.888Z,7.93
2018-04-25T02:09:09.143Z,7.57
2018-04-25T02:11:37.393Z,12.87
2018-04-25T02:14:05.664Z,9.57
2018-04-25T02:16:33.912Z,10.13
2018-04-25T02:19:02.165Z,8.80
2018-04-25T02:21:30.458Z,11.50
2018-04-25T02:23:58.745Z,9.10
2018-04-25T02:26:27.023Z,7.90
2018-04-25T02:28:55.273Z,8.10
2018-04-25T02:31:23.518Z,12.93
2018-04-25T02:33:51.782Z,13.37
2018-04-25T02:36:20.020Z,9.83
2018-04-25T02:38:48.289Z,10.00
2018-04-25T02:41:16.593Z,10.13
2018-04-25T02:43:44.856Z,11.67
2018-04-25T02:46:13.111Z,10.57
2018-04-25T02:48:42.132Z,9.83
2018-04-25T02:51:10.455Z,9.83
2018-04-25T02:53:38.720Z,11.00
2018-04-25T02:56:06.964Z,8.93
2018-04-25T02:58:36.097Z,9.40
2018-04-25T03:01:04.339Z,9.00
2018-04-25T03:03:33.365Z,9.37
2018-04-25T03:06:01.606Z,10.50
2018-04-25T03:08:30.631Z,11.40
2018-04-25T03:10:58.940Z,9.17
2018-04-25T03:13:27.206Z,11.00
2018-04-25T03:15:55.453Z,9.33
2018-04-25T03:18:24.588Z,10.50
2018-04-25T03:20:52.836Z,12.17
2018-04-25T03:23:21.138Z,8.90
2018-04-25T03:25:49.388Z,9.30
2018-04-25T03:28:18.407Z,9.33
2018-04-25T03:30:46.670Z,13.43
2018-04-25T03:33:15.680Z,13.33
2018-04-25T03:35:43.945Z,8.77
2018-04-25T03:38:12.981Z,11.50
2018-04-25T03:40:41.258Z,10.87
2018-04-25T03:43:09.503Z,10.17
2018-04-25T03:45:38.571Z,9.07
2018-04-25T03:48:06.834Z,8.70
2018-04-25T03:50:35.255Z,11.20
2018-04-25T03:53:04.273Z,11.67
2018-04-25T03:55:32.685Z,10.30
2018-04-25T03:58:00.950Z,12.10
2018-04-25T04:00:29.233Z,8.40
2018-04-25T04:02:57.504Z,10.23
2018-04-25T04:05:25.770Z,10.43
2018-04-25T04:07:54.063Z,9.93
2018-04-25T04:10:22.343Z,10.37
2018-04-25T04:12:50.586Z,9.97
2018-04-25T04:15:19.620Z,9.30
2018-04-25T04:17:47.862Z,10.13
2018-04-25T04:20:16.884Z,13.20
2018-04-25T04:22:45.130Z,8.70
2018-04-25T04:25:13.394Z,11.77
2018-04-25T04:27:43.147Z,9.03
2018-04-25T04:30:11.416Z,11.53
2018-04-25T04:32:40.415Z,9.03
2018-04-25T04:35:09.434Z,10.30
2018-04-25T04:37:37.726Z,16.60
2018-04-25T04:40:05.981Z,12.70
2018-04-25T04:42:34.234Z,10.77
2018-04-25T04:45:02.509Z,13.10
2018-04-25T04:47:30.755Z,11.77
2018-04-25T04:49:59.009Z,12.03
2018-04-25T04:52:27.263Z,11.20
2018-04-25T04:54:56.392Z,11.30
2018-04-25T04:57:24.640Z,10.77
2018-04-25T04:59:53.660Z,10.13
2018-04-25T05:02:21.950Z,13.23
2018-04-25T05:04:56.238Z,11.00
2018-04-25T05:07:25.494Z,11.90
2018-04-25T05:09:53.774Z,16.40
2018-04-25T05:12:22.004Z,13.90
2018-04-25T05:14:50.269Z,18.80
2018-04-25T05:17:19.292Z,21.20
2018-04-25T05:19:47.593Z,12.40
2018-04-25T05:22:15.868Z,18.60
2018-04-25T05:24:44.165Z,12.73
2018-04-25T05:27:12.457Z,11.90
2018-04-25T05:29:40.724Z,19.50
2018-04-25T05:32:09.001Z,11.30
2018-04-25T05:34:37.256Z,11.53
2018-04-25T05:37:05.552Z,11.50
2018-04-25T05:39:33.825Z,14.37
2018-04-25T05:42:02.078Z,16.30
2018-04-25T05:44:31.106Z,14.50
2018-04-25T05:46:59.393Z,14.67
2018-04-25T05:49:27.725Z,15.20
2018-04-25T05:51:55.957Z,12.00
2018-04-25T05:54:24.332Z,14.10
2018-04-25T05:56:52.609Z,14.83
2018-04-25T05:59:20.906Z,12.90
2018-04-25T06:01:49.168Z,18.00
2018-04-25T06:04:17.435Z,14.33
2018-04-25T06:06:45.676Z,11.77
2018-04-25T06:09:14.712Z,14.87
2018-04-25T06:11:42.960Z,12.13
2018-04-25T06:14:11.996Z,13.03
2018-04-25T06:16:40.290Z,14.03
2018-04-25T06:19:08.661Z,18.53
2018-04-25T06:21:36.912Z,12.60
2018-04-25T06:24:05.187Z,13.50
2018-04-25T06:26:34.471Z,19.03
2018-04-25T06:29:02.698Z,13.90
2018-04-25T06:31:30.975Z,14.17
2018-04-25T06:33:59.241Z,13.63
2018-04-25T06:36:27.513Z,15.77
2018-04-25T06:38:56.533Z,23.90
2018-04-25T06:41:24.810Z,14.33
2018-04-25T06:43:53.112Z,14.73
2018-04-25T06:46:21.373Z,16.93
2018-04-25T06:48:49.637Z,12.63
2018-04-25T06:51:18.764Z,19.23
2018-04-25T06:53:47.072Z,21.37
2018-04-25T06:56:16.081Z,12.80
2018-04-25T06:58:44.339Z,10.80
2018-04-25T07:01:12.597Z,12.83
2018-04-25T07:03:40.849Z,14.60
2018-04-25T07:06:09.886Z,12.97
2018-04-25T07:08:38.139Z,33.77
2018-04-25T07:11:06.455Z,11.77
2018-04-25T07:13:34.941Z,10.50
2018-04-25T07:16:03.228Z,11.07
2018-04-25T07:18:31.468Z,10.07
2018-04-25T07:20:59.768Z,9.60
2018-04-25T07:23:28.016Z,12.00
2018-04-25T07:25:57.051Z,12.93
2018-04-25T07:28:25.303Z,10.03
2018-04-25T07:30:53.561Z,11.97
2018-04-25T07:33:22.580Z,10.57
2018-04-25T07:35:50.838Z,9.70
2018-04-25T07:38:19.855Z,10.83
2018-04-25T07:40:48.129Z,12.73
2018-04-25T07:43:16.374Z,10.63
2018-04-25T07:45:44.649Z,12.53
2018-04-25T07:48:12.893Z,10.07
2018-04-25T07:50:41.191Z,11.43
2018-04-25T07:53:09.429Z,9.73
2018-04-25T07:55:37.696Z,12.53
2018-04-25T07:58:06.736Z,10.40
2018-04-25T08:00:35.005Z,9.70
2018-04-25T08:03:03.293Z,9.43
2018-04-25T08:05:31.546Z,13.40
2018-04-25T08:07:59.788Z,14.10
2018-04-25T08:10:28.841Z,11.23
2018-04-25T08:13:08.926Z,11.83
2018-04-25T08:15:49.150Z,13.47
2018-04-25T08:18:29.310Z,10.63
2018-04-25T08:21:12.541Z,10.77
2018-04-25T08:23:40.856Z,13.43
2018-04-25T08:26:09.094Z,10.33
2018-04-25T08:28:37.413Z,11.20
2018-04-25T08:31:05.656Z,13.70
2018-04-25T08:33:33.954Z,11.67
2018-04-25T08:36:02.203Z,10.70
2018-04-25T08:38:30.455Z,11.97
2018-04-25T08:40:59.587Z,11.30
2018-04-25T08:43:28.610Z,13.20
2018-04-25T08:45:56.976Z,11.40
2018-04-25T08:48:25.234Z,11.13
2018-04-25T08:50:53.501Z,11.87
2018-04-25T08:53:22.521Z,12.90
2018-04-25T08:55:50.792Z,12.63
2018-04-25T08:58:19.104Z,11.97
2018-04-25T09:00:47.365Z,10.40
2018-04-25T09:03:15.614Z,14.37
2018-04-25T09:05:44.706Z,11.30
2018-04-25T09:08:12.927Z,11.23
2018-04-25T09:10:41.179Z,9.63
2018-04-25T09:13:09.479Z,10.97
2018-04-25T09:15:37.801Z,13.67
2018-04-25T09:18:06.000Z,12.70
2018-04-25T09:20:35.612Z,13.43
2018-04-25T09:23:04.624Z,10.60
2018-04-25T09:25:32.928Z,10.80
2018-04-25T09:28:01.186Z,16.47
2018-04-25T09:30:30.221Z,18.60
2018-04-25T09:32:58.468Z,11.33
2018-04-25T09:35:26.728Z,10.00
2018-04-25T09:37:55.740Z,9.40
2018-04-25T09:40:24.000Z,11.83
2018-04-25T09:42:53.031Z,14.40
2018-04-25T09:45:21.355Z,9.43
2018-04-25T09:47:49.590Z,8.00
2018-04-25T09:50:17.925Z,11.83
2018-04-25T09:52:46.260Z,8.70
2018-04-25T09:55:14.554Z,10.50
2018-04-25T09:57:42.941Z,10.33
2018-04-25T10:00:11.209Z,8.13
2018-04-25T10:02:39.461Z,13.77
2018-04-25T10:05:07.769Z,14.23
2018-04-25T10:07:36.045Z,9.13
2018-04-25T10:10:04.284Z,16.33
2018-04-25T10:12:33.560Z,11.27
2018-04-25T10:15:01.823Z,14.13
2018-04-25T10:17:30.086Z,12.43
2018-04-25T10:19:58.387Z,10.70
2018-04-25T10:22:26.764Z,10.70
2018-04-25T10:24:55.003Z,10.70
2018-04-25T10:27:23.261Z,8.67
2018-04-25T10:29:52.277Z,13.00
2018-04-25T10:32:20.591Z,14.57
2018-04-25T10:34:48.862Z,12.50
2018-04-25T10:37:17.130Z,12.20
2018-04-25T10:39:45.384Z,13.27
2018-04-25T10:42:14.421Z,10.73
2018-04-25T10:44:42.693Z,15.00
2018-04-25T10:47:10.973Z,13.50
2018-04-25T10:49:39.233Z,8.70
2018-04-25T10:52:08.253Z,10.30
2018-04-25T10:54:36.502Z,8.13
2018-04-25T10:57:05.542Z,11.33
2018-04-25T10:59:33.807Z,8.80
2018-04-25T11:02:02.099Z,10.23
2018-04-25T11:04:30.481Z,10.70
2018-04-25T11:06:59.430Z,11.90
2018-04-25T11:09:28.470Z,10.60
2018-04-25T11:11:56.740Z,13.73
2018-04-25T11:14:25.024Z,11.03
2018-04-25T11:16:54.222Z,11.70
2018-04-25T11:19:22.475Z,14.47
2018-04-25T11:21:51.091Z,10.17
2018-04-25T11:24:19.378Z,9.47
2018-04-25T11:26:47.643Z,12.97
2018-04-25T11:29:15.952Z,11.40
2018-04-25T11:31:44.228Z,11.63
2018-04-25T11:34:12.457Z,12.87
2018-04-25T11:36:41.587Z,14.20
2018-04-25T11:39:09.826Z,9.83
2018-04-25T11:41:38.961Z,13.70
2018-04-25T11:44:07.203Z,8.13
2018-04-25T11:46:35.465Z,13.03
2018-04-25T11:49:03.705Z,9.90
2018-04-25T11:51:31.981Z,9.73
2018-04-25T11:54:00.230Z,8.27
2018-04-25T11:56:29.241Z,10.20
2018-04-25T11:58:57.501Z,14.37
2018-04-25T12:01:26.538Z,13.63
2018-04-25T12:03:54.813Z,11.40
2018-04-25T12:06:23.197Z,10.43
2018-04-25T12:08:51.444Z,12.03
2018-04-25T12:11:19.757Z,7.50
2018-04-25T12:13:48.532Z,9.03
2018-04-25T12:16:16.789Z,8.10
2018-04-25T12:18:45.844Z,8.27
2018-04-25T12:21:14.065Z,6.53
2018-04-25T12:23:43.332Z,10.07
2018-04-25T12:26:12.618Z,7.83
2018-04-25T12:28:41.223Z,24.90
2018-04-25T12:31:09.713Z,13.33
2018-04-25T12:33:38.314Z,7.00
2018-04-25T12:36:06.824Z,3.53
2018-04-25T12:38:36.085Z,9.33
2018-04-25T12:41:04.572Z,6.40
2018-04-25T12:43:33.196Z,3.73
2018-04-25T12:46:01.643Z,6.37
2018-04-25T12:48:30.231Z,4.73
2018-04-25T12:50:59.531Z,5.73
2018-04-25T12:53:28.126Z,8.00
2018-04-25T12:55:56.708Z,5.50
2018-04-25T12:58:26.831Z,2.77
2018-04-25T13:00:56.024Z,2.80
2018-04-25T13:03:24.616Z,4.83
2018-04-25T13:05:53.006Z,2.63
2018-04-25T13:08:21.470Z,3.03
2018-04-25T13:10:49.968Z,2.73
2018-04-25T13:13:18.379Z,3.67
2018-04-25T13:15:47.700Z,2.90
2018-04-25T13:18:20.234Z,2.43
2018-04-25T13:20:48.924Z,2.40
2018-04-25T13:23:17.438Z,2.53
2018-04-25T13:25:45.894Z,3.07
2018-04-25T13:28:14.424Z,2.43
2018-04-25T13:30:42.893Z,3.17
2018-04-25T13:33:11.321Z,2.13
2018-04-25T13:35:39.930Z,2.37
2018-04-25T13:38:08.358Z,2.33
2018-04-25T13:40:37.106Z,1.80
2018-04-25T13:43:05.606Z,1.87
2018-04-25T13:45:34.283Z,1.90
2018-04-25T13:48:03.586Z,1.80
2018-04-25T13:50:32.171Z,1.90
2018-04-25T13:53:00.762Z,2.23
2018-04-25T13:55:30.062Z,2.07
2018-04-25T13:57:58.649Z,1.70
2018-04-25T14:00:27.339Z,2.20
2018-04-25T14:02:56.502Z,2.07
2018-04-25T14:05:26.047Z,3.50
2018-04-25T14:07:54.366Z,3.70
2018-04-25T14:10:23.493Z,2.57
2018-04-25T14:12:51.743Z,3.97
2018-04-25T14:15:20.774Z,3.90
2018-04-25T14:17:49.045Z,13.87
2018-04-25T14:20:17.340Z,2.40
2018-04-25T14:22:45.594Z,2.13
2018-04-25T14:25:13.893Z,2.07
2018-04-25T14:27:43.004Z,3.00
2018-04-25T14:30:11.306Z,2.20
2018-04-25T14:32:39.497Z,2.23
2018-04-25T14:35:07.820Z,2.70
2018-04-25T14:37:36.072Z,3.10
2018-04-25T14:40:05.097Z,2.63
2018-04-25T14:42:33.365Z,1.97
2018-04-25T14:45:01.700Z,3.40
2018-04-25T14:47:29.937Z,4.23
2018-04-25T14:49:58.180Z,2.37
2018-04-25T14:52:27.212Z,5.53
2018-04-25T14:54:55.497Z,5.03
2018-04-25T14:57:23.785Z,2.83
2018-04-25T14:59:52.029Z,3.37
2018-04-25T15:02:20.289Z,2.13
2018-04-25T15:04:49.328Z,4.90
2018-04-25T15:07:17.609Z,1.80
2018-04-25T15:09:45.857Z,4.07
2018-04-25T15:12:14.924Z,2.73
2018-04-25T15:14:43.169Z,2.80
2018-04-25T15:17:11.450Z,6.23
2018-04-25T15:19:39.696Z,1.97
2018-04-25T15:22:08.701Z,1.83
2018-04-25T15:24:36.942Z,2.70
2018-04-25T15:27:05.213Z,2.10
2018-04-25T15:29:33.453Z,7.13
2018-04-25T15:32:01.711Z,2.80
2018-04-25T15:34:29.952Z,1.80
2018-04-25T15:36:58.314Z,3.23
2018-04-25T15:39:26.573Z,1.60
2018-04-25T15:41:54.859Z,1.43
2018-04-25T15:44:23.095Z,1.50
2018-04-25T15:46:52.127Z,2.20
2018-04-25T15:49:20.403Z,3.47
2018-04-25T15:51:48.662Z,3.97
2018-04-25T15:54:17.660Z,1.50
2018-04-25T15:56:45.968Z,3.27
2018-04-25T15:59:14.253Z,2.13
2018-04-25T16:01:42.570Z,1.83
2018-04-25T16:04:10.796Z,2.23
2018-04-25T16:06:39.037Z,2.70
2018-04-25T16:09:07.373Z,6.60
2018-04-25T16:11:35.690Z,3.40
2018-04-25T16:14:03.969Z,6.93
2018-04-25T16:16:32.227Z,2.73
2018-04-25T16:19:00.483Z,2.10
2018-04-25T16:21:28.775Z,3.77
2018-04-25T16:23:57.024Z,8.13
2018-04-25T16:26:25.332Z,3.97
2018-04-25T16:28:53.591Z,7.43
2018-04-25T16:31:21.890Z,3.40
2018-04-25T16:33:50.194Z,6.30
2018-04-25T16:36:18.432Z,6.33
2018-04-25T16:38:47.508Z,6.00
2018-04-25T16:41:16.544Z,5.67
2018-04-25T16:43:44.926Z,4.00
2018-04-25T16:46:13.161Z,4.17
2018-04-25T16:48:42.192Z,4.90
2018-04-25T16:51:10.483Z,8.60
2018-04-25T16:53:38.756Z,6.20
2018-04-25T16:56:06.994Z,4.53
2018-04-25T16:58:36.009Z,5.70
2018-04-25T17:01:04.249Z,4.50
2018-04-25T17:03:34.018Z,4.30
2018-04-25T17:06:02.252Z,9.33
2018-04-25T17:08:31.346Z,7.83
2018-04-25T17:10:59.529Z,4.90
2018-04-25T17:13:27.783Z,4.80
2018-04-25T17:15:56.033Z,5.77
2018-04-25T17:18:24.297Z,4.50
2018-04-25T17:20:52.532Z,3.67
2018-04-25T17:23:20.864Z,4.50
2018-04-25T17:25:49.158Z,4.40
2018-04-25T17:28:17.432Z,5.10
2018-04-25T17:30:45.702Z,6.20
2018-04-25T17:33:13.990Z,4.73
2018-04-25T17:35:42.252Z,8.30
2018-04-25T17:38:11.264Z,4.77
2018-04-25T17:40:39.496Z,3.90
2018-04-25T17:43:08.541Z,6.13
2018-04-25T17:45:36.821Z,5.73
2018-04-25T17:48:05.101Z,4.90
2018-04-25T17:50:33.415Z,5.13
2018-04-25T17:53:01.644Z,5.27
2018-04-25T17:55:29.888Z,4.00
2018-04-25T17:57:58.932Z,5.20
2018-04-25T18:00:27.208Z,5.18
2018-04-25T18:02:55.472Z,5.40
2018-04-25T18:05:24.879Z,5.90
2018-04-25T18:07:53.185Z,5.80
2018-04-25T18:10:21.420Z,6.23
2018-04-25T18:12:50.456Z,5.13
2018-04-25T18:15:18.778Z,5.30
2018-04-25T18:17:47.118Z,4.47
2018-04-25T18:20:15.360Z,5.17
2018-04-25T18:22:44.401Z,5.33
2018-04-25T18:25:12.684Z,5.90
2018-04-25T18:27:40.939Z,5.80
2018-04-25T18:30:09.176Z,5.47
2018-04-25T18:32:37.520Z,6.67
2018-04-25T18:35:05.786Z,5.10
2018-04-25T18:37:34.080Z,4.93
2018-04-25T18:40:03.122Z,4.97
2018-04-25T18:42:32.127Z,5.40
2018-04-25T18:45:01.148Z,5.07
2018-04-25T18:47:29.442Z,4.67
2018-04-25T18:49:57.697Z,7.43
2018-04-25T18:52:26.705Z,6.03
2018-04-25T18:54:55.000Z,6.07
2018-04-25T18:57:23.249Z,6.87
2018-04-25T18:59:52.372Z,5.53
2018-04-25T19:02:20.619Z,5.93
2018-04-25T19:04:49.648Z,8.73
2018-04-25T19:07:17.884Z,4.77
2018-04-25T19:09:46.896Z,5.50
2018-04-25T19:12:15.897Z,6.13
2018-04-25T19:14:44.937Z,9.83
2018-04-25T19:17:13.173Z,6.93
2018-04-25T19:19:42.193Z,4.90
2018-04-25T19:22:10.576Z,4.30
2018-04-25T19:24:38.837Z,3.80
2018-04-25T19:27:07.136Z,4.07
2018-04-25T19:29:35.417Z,11.13
2018-04-25T19:32:03.702Z,6.40
2018-04-25T19:34:31.957Z,3.43
2018-04-25T19:37:00.295Z,3.90
2018-04-25T19:39:29.353Z,4.10
2018-04-25T19:41:57.598Z,5.43
2018-04-25T19:44:26.670Z,3.73
2018-04-25T19:46:54.903Z,4.10
2018-04-25T19:49:23.206Z,3.47
2018-04-25T19:51:51.472Z,4.40
2018-04-25T19:54:19.724Z,3.67
2018-04-25T19:56:48.725Z,4.67
2018-04-25T19:59:17.001Z,7.83
2018-04-25T20:01:46.077Z,5.70
2018-04-25T20:04:14.331Z,4.50
2018-04-25T20:06:42.589Z,5.20
2018-04-25T20:09:10.841Z,3.67
2018-04-25T20:11:39.869Z,4.20
2018-04-25T20:14:08.172Z,4.30
2018-04-25T20:16:36.404Z,3.30
2018-04-25T20:19:05.423Z,3.10
2018-04-25T20:21:33.747Z,4.83
2018-04-25T20:24:02.085Z,3.57
2018-04-25T20:26:30.320Z,3.97
2018-04-25T20:28:59.351Z,4.30
2018-04-25T20:31:27.635Z,4.90
2018-04-25T20:33:55.926Z,9.33
2018-04-25T20:36:24.170Z,5.77
2018-04-25T20:38:53.189Z,5.63
2018-04-25T20:41:21.424Z,3.60
2018-04-25T20:43:49.693Z,4.30
2018-04-25T20:46:17.929Z,6.20
2018-04-25T20:48:46.236Z,3.90
2018-04-25T20:51:14.593Z,5.67
2018-04-25T20:53:42.858Z,5.07
2018-04-25T20:56:11.145Z,3.53
2018-04-25T20:58:39.981Z,3.90
2018-04-25T21:01:08.217Z,4.43
2018-04-25T21:03:36.473Z,5.43
2018-04-25T21:06:04.727Z,4.10
2018-04-25T21:08:32.972Z,6.83
2018-04-25T21:11:01.265Z,5.50
2018-04-25T21:13:29.505Z,4.20
2018-04-25T21:15:57.746Z,5.17
2018-04-25T21:18:26.767Z,5.00
2018-04-25T21:20:55.922Z,3.67
2018-04-25T21:23:25.224Z,3.50
2018-04-25T21:25:53.714Z,4.07
2018-04-25T21:28:22.342Z,5.03
2018-04-25T21:30:50.756Z,3.53
2018-04-25T21:33:19.821Z,3.80
2018-04-25T21:35:48.091Z,5.83
2018-04-25T21:38:17.218Z,3.50
2018-04-25T21:40:45.501Z,3.40
2018-04-25T21:43:14.748Z,5.83
2018-04-25T21:45:43.013Z,3.30
2018-04-25T21:48:12.808Z,8.27
2018-04-25T21:50:41.169Z,5.30
2018-04-25T21:53:09.422Z,5.23
2018-04-25T21:55:37.735Z,7.33
2018-04-25T21:58:06.019Z,5.43
2018-04-25T22:00:34.998Z,5.67
2018-04-25T22:03:03.284Z,4.70
2018-04-25T22:05:31.571Z,5.17
2018-04-25T22:07:59.806Z,8.53
2018-04-25T22:10:28.838Z,4.90
2018-04-25T22:12:57.084Z,4.67
2018-04-25T22:15:26.109Z,6.10
2018-04-25T22:17:54.336Z,5.73
2018-04-25T22:20:22.690Z,4.20
2018-04-25T22:22:50.960Z,5.87
2018-04-25T22:25:19.217Z,7.87
2018-04-25T22:27:47.481Z,7.03
2018-04-25T22:30:15.792Z,5.70
2018-04-25T22:32:44.036Z,7.60
2018-04-25T22:35:13.075Z,5.50
2018-04-25T22:37:41.308Z,5.57
2018-04-25T22:40:10.340Z,4.50
2018-04-25T22:42:38.571Z,4.73
2018-04-25T22:45:06.903Z,5.40
2018-04-25T22:47:35.211Z,5.17
2018-04-25T22:50:03.489Z,5.67
2018-04-25T22:52:31.737Z,10.80
2018-04-25T22:54:59.990Z,4.07
2018-04-25T22:57:28.309Z,3.00
2018-04-25T22:59:57.376Z,2.90
2018-04-25T23:02:26.385Z,2.80
2018-04-25T23:04:54.644Z,4.10
2018-04-25T23:07:23.648Z,4.80
2018-04-25T23:09:52.668Z,1.90
2018-04-25T23:12:20.921Z,1.70
2018-04-25T23:14:49.940Z,3.13
2018-04-25T23:17:18.181Z,4.77
2018-04-25T23:19:46.435Z,2.37
2018-04-25T23:22:14.687Z,1.70
2018-04-25T23:24:42.941Z,2.07
2018-04-25T23:27:11.247Z,1.73
2018-04-25T23:29:39.541Z,1.43
2018-04-25T23:32:07.782Z,1.00
2018-04-25T23:34:36.037Z,4.47
2018-04-25T23:37:05.046Z,1.97
2018-04-25T23:39:34.077Z,3.60
2018-04-25T23:42:02.358Z,2.73
2018-04-25T23:44:30.611Z,2.30
2018-04-25T23:46:59.637Z,4.20
2018-04-25T23:49:27.920Z,3.40
2018-04-25T23:51:56.205Z,2.77
2018-04-25T23:54:24.452Z,3.33
2018-04-25T23:56:53.466Z,4.27
2018-04-25T23:59:21.733Z,3.67
